首页
METAR-TAF:

METAR-TAF

机场 :

蘇黎世機場

苏黎世, 瑞士

纬度: 47-29N, 经度: 008-32E, 海拔: 436米

当前天气观测

该预报发布于36分钟前的00:50 UTC
风速2节,风向
温度 5°C
湿度 100%
气压 1017 hPa
能见度10公里或以上
浅雾

METAR: LSZH 170050Z 36002KT 9999 MIFG NSC 05/05 Q1017 NOSIG

时间: 03:26 (01:26 UTC)

预报

该预报发布于2小时和1分钟前的23:25 UTC
预报有效从17日的 00点(UTC)到 18日的 06点(UTC)
风速3节,风向多变
能见度10公里或以上
1500米以下无云,无积雨云
几率 40%
从 17日的 00点(UTC)到 17日的 07点(UTC)
能見度: 6000
浅雾
几率 30%
从 17日的 02点(UTC)到 17日的 06点(UTC)
能見度: 1500
碎片雾
成为
从 17日的 18点(UTC)到 17日的 21点(UTC)
能见度10公里或以上
多云层高于7000英尺
几率 40% :
短暂存在
从 17日的 20点(UTC)到 18日的 03点(UTC)
几率 30%
从 18日的 03点(UTC)到 18日的 06点(UTC)
能見度: 4500
轻雾

TAF: LSZH 162325Z 1700/1806 VRB03KT CAVOK TX18/1714Z TN05/1701Z TN10/1804Z PROB40 1700/1707 6000 MIFG NSC PROB30 1702/1706 1500 BCFG NSC BECMG 1718/1721 9999 BKN070 PROB40 TEMPO 1720/1803 RA PROB30 1803/1806 4500 BR

超过4000个机场的气象观测和天气预报(METAR&TAF报告)。

可查询的气象台以黄色和红色小点在地图上表示。

将鼠标移到小点上方,可查看气象台名称。

然后点击查看天气观测和预报。

如需切换地图:点击带黑十字的绿色按钮放大地图;点击带横线的绿色按钮缩小地图;或者点击绿色箭头查看邻近地区的地图。


METAR-TAF: